Time;durP1;ratioP1;P1;durP2;ratioP2;P2;SDS_P1;SDS_P2;PMS_P1;PMS_P2;Temp;Humidity;BMP_temperature;BMP_pressure;BME280_temperature;BME280_humidity;BME280_pressure;Samples;Min_cycle;Max_cycle;Signal;HPM_P1;HPM_P2
2022/08/04 00:00:06;;;;;;;1.92;0.82;;;19.90;52.50;22.00;93892.00;;;;10474821;28;45229;-63
2022/08/04 00:05:37;;;;;;;0.90;0.80;;;19.80;52.50;22.00;93885.00;;;;10481364;28;45372;-63
2022/08/04 00:11:02;;;;;;;1.13;0.75;;;19.90;52.60;22.00;93886.00;;;;10461897;28;45303;-64
2022/08/04 00:16:24;;;;;;;1.10;0.90;;;19.80;52.60;22.00;93876.00;;;;10473634;28;44683;-64
2022/08/04 00:21:52;;;;;;;0.80;0.70;;;19.90;52.60;22.00;93873.00;;;;10474732;28;45326;-63
2022/08/04 00:27:14;;;;;;;1.30;0.95;;;19.80;52.60;22.00;93889.00;;;;10461296;28;45309;-63
2022/08/04 00:32:35;;;;;;;1.55;0.90;;;19.80;52.70;22.00;93884.00;;;;10473516;28;45188;-63
2022/08/04 00:37:57;;;;;;;1.15;0.93;;;19.80;52.70;22.00;93879.00;;;;10472859;28;45164;-63
2022/08/04 00:43:30;;;;;;;2.20;0.80;;;19.80;52.60;21.90;93877.00;;;;10473504;28;45458;-63
2022/08/04 00:49:09;;;;;;;1.75;0.98;;;19.80;52.70;22.00;93867.00;;;;10472241;28;45130;-63
2022/08/04 00:54:42;;;;;;;1.83;0.90;;;19.80;52.70;22.00;93887.00;;;;10471949;28;45175;-63
2022/08/04 01:00:12;;;;;;;1.48;0.85;;;19.80;52.70;22.00;93874.00;;;;10470173;28;45184;-64
2022/08/04 01:05:49;;;;;;;1.05;0.80;;;19.80;52.80;22.00;93887.00;;;;10480602;28;45260;-63
2022/08/04 01:11:24;;;;;;;1.07;0.83;;;19.80;52.80;22.00;93888.00;;;;10472432;28;45340;-63
2022/08/04 01:16:52;;;;;;;1.17;0.82;;;19.80;52.70;22.00;93883.00;;;;10471273;28;45212;-63
2022/08/04 01:22:56;;;;;;;1.17;0.80;;;19.80;52.80;22.00;93888.00;;;;10471025;28;45294;-63
2022/08/04 01:28:33;;;;;;;1.23;1.10;;;19.80;52.90;21.90;93888.00;;;;10471421;28;45123;-64
2022/08/04 01:34:00;;;;;;;1.95;0.98;;;19.80;52.90;21.90;93875.00;;;;10461041;28;45480;-62
2022/08/04 01:45:03;;;;;;;1.17;1.00;;;19.80;53.10;21.90;93856.00;;;;10458203;28;45357;-63
2022/08/04 01:50:26;;;;;;;1.77;1.10;;;19.80;53.40;21.90;93876.00;;;;10470670;28;45284;-63
2022/08/04 01:55:48;;;;;;;1.30;0.95;;;19.80;53.30;21.90;93866.00;;;;10469198;28;45201;-63
2022/08/04 02:01:11;;;;;;;2.60;0.93;;;19.80;53.30;21.80;93864.00;;;;10470546;28;45160;-63
2022/08/04 02:06:42;;;;;;;1.20;0.80;;;19.80;53.40;21.90;93858.00;;;;10460615;28;45305;-63
2022/08/04 02:12:05;;;;;;;1.63;0.68;;;19.80;53.50;21.90;93869.00;;;;10470683;28;45207;-63
2022/08/04 02:17:32;;;;;;;0.93;0.85;;;19.80;53.60;21.80;93863.00;;;;10469205;28;45213;-62
2022/08/04 02:23:02;;;;;;;1.98;1.13;;;19.80;53.70;21.90;93866.00;;;;10470148;28;45218;-63
2022/08/04 02:28:30;;;;;;;1.40;1.10;;;19.80;53.70;21.90;93859.00;;;;10469602;28;45343;-63
2022/08/04 02:34:01;;;;;;;1.35;1.10;;;19.80;53.80;21.90;93867.00;;;;10458609;28;45188;-63
2022/08/04 02:39:24;;;;;;;1.10;0.90;;;19.80;53.90;21.90;93863.00;;;;10469305;28;45325;-63
2022/08/04 02:44:51;;;;;;;2.10;0.93;;;19.80;53.90;21.80;93863.00;;;;10469780;28;45225;-64
2022/08/04 02:50:14;;;;;;;1.02;0.70;;;19.70;54.00;21.80;93860.00;;;;10469250;28;45164;-63
2022/08/04 02:55:37;;;;;;;1.35;0.95;;;19.70;54.10;21.80;93863.00;;;;10468961;28;45303;-63
2022/08/04 03:00:58;;;;;;;1.60;0.93;;;19.70;54.30;21.80;93851.00;;;;10473586;28;45177;-63
2022/08/04 03:07:09;;;;;;;2.00;1.13;;;19.70;54.30;21.80;93862.00;;;;10476630;28;45433;-63
2022/08/04 03:13:03;;;;;;;1.52;1.08;;;19.80;54.50;21.80;93860.00;;;;10456526;28;45341;-64
2022/08/04 03:19:22;;;;;;;1.17;0.95;;;19.80;54.50;21.80;93864.00;;;;10468923;28;45387;-62
2022/08/04 03:25:23;;;;;;;1.20;1.00;;;19.80;54.70;21.80;93862.00;;;;10460870;28;45298;-64
2022/08/04 03:31:05;;;;;;;3.03;1.20;;;19.70;54.80;21.80;93857.00;;;;10457043;28;45258;-63
2022/08/04 03:37:11;;;;;;;2.25;1.20;;;19.70;54.80;21.80;93866.00;;;;10466868;28;45291;-62
2022/08/04 03:43:25;;;;;;;1.38;1.08;;;19.70;55.00;21.80;93854.00;;;;10469917;28;45245;-62
2022/08/04 03:49:32;;;;;;;1.27;0.95;;;19.80;55.10;21.80;93852.00;;;;10466374;28;45312;-62
2022/08/04 03:55:44;;;;;;;2.55;1.08;;;19.70;55.10;21.80;93865.00;;;;10475251;28;45218;-63
2022/08/04 04:01:17;;;;;;;2.47;1.20;;;19.80;55.20;21.80;93867.00;;;;10474601;28;45215;-63
2022/08/04 04:07:19;;;;;;;2.00;1.25;;;19.80;55.10;21.80;93864.00;;;;10482110;28;45168;-63
2022/08/04 04:13:17;;;;;;;2.53;1.02;;;19.70;55.10;21.80;93857.00;;;;10473664;28;45172;-63
2022/08/04 04:19:02;;;;;;;1.73;1.17;;;19.70;55.20;21.80;93863.00;;;;10442448;28;45234;-63
2022/08/04 04:25:04;;;;;;;1.30;1.10;;;19.70;55.20;21.80;93878.00;;;;10464051;28;45345;-63
2022/08/04 04:30:32;;;;;;;1.95;1.00;;;19.70;55.40;21.80;93882.00;;;;10460689;28;45357;-63
2022/08/04 04:36:05;;;;;;;1.98;1.23;;;19.70;55.40;21.80;93874.00;;;;10472887;28;45518;-63
2022/08/04 04:41:41;;;;;;;1.92;1.20;;;19.70;56.10;21.70;93874.00;;;;10471259;28;45144;-63
2022/08/04 04:47:13;;;;;;;1.23;1.13;;;19.70;55.60;21.70;93884.00;;;;10461997;28;45193;-62
2022/08/04 04:52:42;;;;;;;1.50;1.00;;;19.70;55.50;21.70;93875.00;;;;10472047;28;45222;-63
2022/08/04 04:58:05;;;;;;;1.83;1.10;;;19.70;55.90;21.70;93878.00;;;;10471940;28;45164;-63
2022/08/04 05:03:48;;;;;;;2.15;1.30;;;19.60;55.90;21.70;93885.00;;;;10482126;28;45263;-64
2022/08/04 05:09:30;;;;;;;2.25;1.10;;;19.70;56.20;21.70;93897.00;;;;10473661;28;45880;-63
2022/08/04 05:14:54;;;;;;;1.40;1.20;;;19.60;56.10;21.70;93884.00;;;;10471885;28;45241;-63
2022/08/04 05:20:21;;;;;;;1.40;1.10;;;19.60;56.50;21.70;93897.00;;;;10472034;28;45222;-64
2022/08/04 05:25:48;;;;;;;2.60;1.50;;;19.60;56.40;21.70;93898.00;;;;10472370;28;45234;-62
2022/08/04 05:31:16;;;;;;;2.00;1.23;;;19.60;56.50;21.70;93902.00;;;;10471112;28;45060;-67
2022/08/04 05:36:42;;;;;;;1.42;0.95;;;19.60;56.60;21.80;93915.00;;;;10475154;28;45279;-66
2022/08/04 05:42:05;;;;;;;1.40;1.10;;;19.60;56.40;21.80;93915.00;;;;10474297;28;45458;-67
2022/08/04 05:47:29;;;;;;;1.67;1.10;;;19.60;56.40;21.80;93901.00;;;;10471409;28;45191;-67
2022/08/04 05:52:51;;;;;;;1.00;0.90;;;19.60;56.40;21.80;93907.00;;;;10471462;28;45320;-67
2022/08/04 05:58:12;;;;;;;1.15;1.05;;;19.60;56.40;21.80;93910.00;;;;10459717;28;45142;-67
2022/08/04 06:03:35;;;;;;;1.35;1.00;;;19.60;56.40;21.80;93904.00;;;;10475195;28;45271;-67
2022/08/04 06:08:56;;;;;;;1.70;1.30;;;19.60;57.10;21.80;93907.00;;;;10485474;28;45248;-67
2022/08/04 06:14:18;;;;;;;1.33;1.10;;;19.60;56.50;21.80;93911.00;;;;10470416;28;45163;-67
2022/08/04 06:19:42;;;;;;;1.77;1.10;;;19.60;56.50;21.80;93905.00;;;;10469567;28;45252;-67
2022/08/04 06:25:07;;;;;;;1.58;1.17;;;19.60;56.40;21.80;93899.00;;;;10470458;28;45247;-67
2022/08/04 06:30:31;;;;;;;1.85;1.20;;;19.70;56.40;21.80;93907.00;;;;10458748;28;45200;-67
2022/08/04 06:35:54;;;;;;;1.30;1.02;;;19.60;56.30;21.80;93895.00;;;;10469045;28;45176;-67
2022/08/04 06:41:15;;;;;;;2.00;0.95;;;19.70;56.30;21.80;93914.00;;;;10466316;28;45232;-67
2022/08/04 06:46:39;;;;;;;1.25;0.98;;;19.70;56.20;21.80;93902.00;;;;10456277;28;45239;-67
2022/08/04 06:52:04;;;;;;;1.33;1.08;;;19.70;56.20;21.80;93909.00;;;;10469279;28;45202;-67
2022/08/04 06:57:27;;;;;;;1.45;1.08;;;19.60;56.10;21.80;93921.00;;;;10468348;28;45226;-67
2022/08/04 07:02:52;;;;;;;1.50;1.00;;;19.60;56.10;21.80;93907.00;;;;10469030;28;45180;-67
2022/08/04 07:08:15;;;;;;;1.17;0.88;;;19.60;56.00;21.80;93905.00;;;;10490327;28;45281;-67
2022/08/04 07:13:36;;;;;;;1.52;1.00;;;19.70;56.10;21.80;93916.00;;;;10468641;28;45207;-67
2022/08/04 07:18:57;;;;;;;1.90;1.20;;;19.70;56.00;21.80;93921.00;;;;10473138;28;45207;-67
2022/08/04 07:24:19;;;;;;;1.52;1.08;;;19.70;56.10;21.80;93911.00;;;;10476319;28;45320;-67
2022/08/04 07:29:41;;;;;;;2.08;1.10;;;19.70;56.00;21.80;93920.00;;;;10476405;28;45162;-67
2022/08/04 07:35:03;;;;;;;1.20;0.90;;;19.70;56.00;21.80;93910.00;;;;10476253;28;45479;-67
2022/08/04 07:40:25;;;;;;;1.33;1.05;;;19.70;56.00;21.80;93919.00;;;;10475867;28;45262;-67
2022/08/04 07:45:46;;;;;;;1.48;0.88;;;19.70;55.90;21.80;93908.00;;;;10477383;28;45468;-67
2022/08/04 07:51:08;;;;;;;1.17;1.00;;;19.70;56.00;21.80;93920.00;;;;10475721;28;45400;-67
2022/08/04 07:56:31;;;;;;;1.35;0.90;;;19.60;55.90;21.80;93911.00;;;;10474648;28;45402;-67
2022/08/04 08:01:53;;;;;;;1.58;1.00;;;19.60;55.90;21.80;93906.00;;;;10475421;28;45215;-67
2022/08/04 08:07:13;;;;;;;1.65;0.90;;;19.60;55.90;21.80;93915.00;;;;10485327;28;45204;-67
2022/08/04 08:12:35;;;;;;;1.67;0.98;;;19.70;56.60;21.80;93902.00;;;;10474837;28;45313;-67
2022/08/04 08:17:56;;;;;;;2.10;0.90;;;19.70;55.90;21.80;93903.00;;;;10473882;28;45210;-67
2022/08/04 08:23:17;;;;;;;1.20;0.90;;;19.70;55.90;21.80;93919.00;;;;10474243;28;45251;-67
2022/08/04 08:28:38;;;;;;;1.10;0.88;;;19.70;55.90;21.80;93913.00;;;;10473974;28;45241;-67
2022/08/04 08:34:01;;;;;;;1.23;0.90;;;19.70;55.90;21.80;93922.00;;;;10474280;28;45386;-67
2022/08/04 08:39:29;;;;;;;2.15;1.05;;;19.70;55.90;21.80;93914.00;;;;10472845;28;45160;-67
2022/08/04 08:45:35;;;;;;;1.48;1.00;;;19.70;55.90;21.80;93929.00;;;;10488938;28;45363;-67
2022/08/04 08:51:38;;;;;;;1.55;0.90;;;19.70;55.90;21.80;93932.00;;;;10473740;28;45267;-67
2022/08/04 08:57:17;;;;;;;0.90;0.70;;;19.70;55.90;21.80;93928.00;;;;10472617;28;45253;-67
2022/08/04 09:03:25;;;;;;;1.58;0.85;;;19.70;55.90;21.80;93919.00;;;;10472870;28;45329;-67
2022/08/04 09:09:38;;;;;;;2.35;1.10;;;19.70;55.90;21.80;93924.00;;;;10468506;28;45144;-67
2022/08/04 09:15:06;;;;;;;1.00;0.85;;;19.70;55.90;21.80;93913.00;;;;10455462;28;45137;-67
2022/08/04 09:20:39;;;;;;;1.10;0.88;;;19.70;55.90;21.80;93921.00;;;;10473031;28;45248;-67
2022/08/04 09:26:09;;;;;;;1.52;1.00;;;19.70;56.00;21.80;93909.00;;;;10472046;28;45331;-67
2022/08/04 09:31:45;;;;;;;1.08;0.80;;;19.70;56.00;21.80;93921.00;;;;10472292;28;45868;-67
2022/08/04 09:37:17;;;;;;;1.00;0.73;;;19.70;55.90;21.80;93905.00;;;;10471000;28;45236;-67
2022/08/04 09:42:50;;;;;;;1.40;1.00;;;19.70;56.00;21.80;93919.00;;;;10477225;28;45413;-67
2022/08/04 09:48:19;;;;;;;1.10;0.80;;;19.70;56.00;21.80;93908.00;;;;10458259;28;45179;-67
2022/08/04 09:53:58;;;;;;;1.20;0.80;;;19.70;56.00;21.80;93915.00;;;;10471335;28;45281;-67
2022/08/04 09:59:25;;;;;;;1.27;0.80;;;19.70;56.00;21.80;93915.00;;;;10470870;28;45216;-67
2022/08/04 10:04:49;;;;;;;1.77;0.90;;;19.70;56.00;21.80;93913.00;;;;10470892;28;45184;-67
2022/08/04 10:10:31;;;;;;;1.10;0.80;;;19.70;56.00;21.80;93903.00;;;;10471340;28;45254;-67
2022/08/04 10:16:16;;;;;;;1.65;0.90;;;19.70;56.00;21.80;93887.00;;;;10470050;28;45145;-67
2022/08/04 10:21:46;;;;;;;1.73;1.10;;;19.70;56.00;21.80;93892.00;;;;10470974;28;45221;-67
2022/08/04 10:27:16;;;;;;;0.90;0.80;;;19.70;56.00;21.80;93892.00;;;;10469725;28;45238;-67
2022/08/04 10:32:46;;;;;;;1.70;1.20;;;19.70;56.00;21.80;93892.00;;;;10470259;28;45304;-67
2022/08/04 10:38:18;;;;;;;1.80;0.90;;;19.70;55.90;21.80;93894.00;;;;10468710;28;45318;-67
2022/08/04 10:43:49;;;;;;;1.10;1.00;;;19.70;55.90;21.80;93889.00;;;;10470959;28;45253;-67
2022/08/04 10:49:21;;;;;;;1.67;0.90;;;19.70;55.80;21.80;93889.00;;;;10475416;28;45251;-67
2022/08/04 10:54:49;;;;;;;0.88;0.80;;;19.70;55.80;21.80;93873.00;;;;10475108;28;45148;-67
2022/08/04 11:00:15;;;;;;;0.82;0.65;;;19.70;55.80;21.90;93891.00;;;;10477385;28;45339;-67
2022/08/04 11:05:43;;;;;;;0.80;0.70;;;19.70;55.70;21.80;93878.00;;;;10476952;28;45177;-67
2022/08/04 11:11:13;;;;;;;0.77;0.60;;;19.70;55.70;21.90;93873.00;;;;10464312;28;45232;-67
2022/08/04 11:16:42;;;;;;;1.65;0.70;;;19.70;55.70;21.80;93862.00;;;;10475963;28;45243;-67
2022/08/04 11:22:09;;;;;;;1.30;0.80;;;19.70;55.50;21.90;93865.00;;;;10490817;28;45162;-67
2022/08/04 11:27:38;;;;;;;1.00;0.80;;;19.70;55.40;21.90;93874.00;;;;10465983;28;45222;-67
2022/08/04 11:33:10;;;;;;;0.60;0.60;;;19.70;55.40;21.90;93872.00;;;;10476527;28;45304;-67
2022/08/04 11:38:39;;;;;;;1.02;0.60;;;19.70;55.40;21.90;93879.00;;;;10475236;28;45220;-67
2022/08/04 11:44:00;;;;;;;0.93;0.70;;;19.70;55.40;21.90;93876.00;;;;10475109;28;45224;-67
2022/08/04 11:49:35;;;;;;;0.90;0.75;;;19.70;55.30;21.80;93875.00;;;;10475768;28;45238;-67
2022/08/04 11:54:57;;;;;;;1.42;0.90;;;19.70;55.30;21.90;93867.00;;;;10475476;28;45196;-67
2022/08/04 12:00:19;;;;;;;1.10;0.60;;;19.80;55.30;21.90;93876.00;;;;10474803;28;45226;-67
2022/08/04 12:06:02;;;;;;;1.10;0.70;;;19.80;55.10;22.00;93870.00;;;;10475486;28;45194;-67
2022/08/04 12:11:40;;;;;;;0.70;0.60;;;19.80;55.10;21.90;93873.00;;;;10475445;28;45195;-67
2022/08/04 12:17:03;;;;;;;1.10;0.70;;;19.80;54.80;21.90;93855.00;;;;10474560;28;45190;-67
2022/08/04 12:22:28;;;;;;;1.40;0.70;;;19.80;54.80;21.90;93873.00;;;;10482198;28;45193;-67
2022/08/04 12:27:53;;;;;;;1.02;0.60;;;19.80;54.70;21.90;93860.00;;;;10473349;28;45291;-67
2022/08/04 12:33:23;;;;;;;1.75;0.80;;;19.80;54.60;21.90;93867.00;;;;10474133;28;45183;-67
2022/08/04 12:38:54;;;;;;;0.50;0.50;;;19.80;54.60;21.90;93857.00;;;;10473201;28;45188;-67
2022/08/04 12:44:16;;;;;;;1.20;0.75;;;19.70;54.50;21.90;93857.00;;;;10473260;28;45201;-66
2022/08/04 12:49:39;;;;;;;0.50;0.50;;;19.80;54.60;21.90;93841.00;;;;10473575;28;45871;-67
2022/08/04 12:55:02;;;;;;;0.50;0.50;;;19.80;54.70;21.90;93834.00;;;;10462080;28;45209;-67
2022/08/04 13:00:26;;;;;;;0.52;0.50;;;19.80;54.70;21.90;93847.00;;;;10473180;28;45256;-67
2022/08/04 13:05:49;;;;;;;0.50;0.50;;;19.80;54.70;21.90;93848.00;;;;10473395;28;45278;-67
2022/08/04 13:11:12;;;;;;;0.60;0.50;;;19.80;54.80;21.90;93838.00;;;;10472638;28;45204;-66
2022/08/04 13:16:33;;;;;;;0.95;0.60;;;19.80;54.80;21.90;93830.00;;;;10471135;28;45224;-67
2022/08/04 13:21:56;;;;;;;1.08;0.70;;;19.80;54.80;21.90;93834.00;;;;10486089;28;45193;-67
2022/08/04 13:27:21;;;;;;;0.50;0.50;;;19.80;54.80;21.90;93827.00;;;;10460209;28;45584;-67
2022/08/04 13:32:42;;;;;;;0.57;0.50;;;19.80;54.80;22.00;93822.00;;;;10472693;28;45383;-67
2022/08/04 13:38:04;;;;;;;0.55;0.55;;;19.80;54.80;22.00;93814.00;;;;10471142;28;45085;-67
2022/08/04 13:43:32;;;;;;;0.63;0.60;;;19.80;54.70;22.00;93820.00;;;;10471465;28;45188;-67
2022/08/04 13:48:53;;;;;;;1.10;0.70;;;19.80;54.70;21.90;93809.00;;;;10471790;28;45308;-67
2022/08/04 13:54:14;;;;;;;2.03;0.75;;;19.80;54.30;21.90;93803.00;;;;10471301;28;45233;-67
2022/08/04 13:59:38;;;;;;;1.25;0.70;;;19.80;54.00;21.90;93813.00;;;;10487859;28;45201;-67
2022/08/04 14:05:07;;;;;;;0.50;0.50;;;19.80;53.80;21.90;93793.00;;;;10471033;28;45282;-67
2022/08/04 14:10:27;;;;;;;0.68;0.57;;;19.80;53.70;21.90;93797.00;;;;10471119;28;45226;-67
2022/08/04 14:15:51;;;;;;;0.82;0.63;;;19.80;53.70;22.00;93795.00;;;;10470474;28;45226;-67
2022/08/04 14:21:14;;;;;;;0.60;0.40;;;19.80;53.90;21.90;93793.00;;;;10470614;28;45255;-67
2022/08/04 14:26:35;;;;;;;1.48;0.57;;;19.80;54.00;22.00;93780.00;;;;10469886;28;45200;-67
2022/08/04 14:32:07;;;;;;;0.60;0.40;;;19.80;54.10;22.00;93770.00;;;;10471115;28;45163;-67
2022/08/04 14:37:27;;;;;;;0.60;0.60;;;19.80;54.20;22.00;93778.00;;;;10467955;28;45294;-67
2022/08/04 14:42:48;;;;;;;0.75;0.50;;;19.80;54.30;22.00;93769.00;;;;10469963;28;45266;-67
2022/08/04 14:48:12;;;;;;;0.52;0.50;;;19.80;54.30;22.00;93765.00;;;;10470018;28;45243;-67
2022/08/04 14:53:32;;;;;;;0.70;0.40;;;19.80;54.30;22.00;93770.00;;;;10470299;28;45156;-67
2022/08/04 14:59:01;;;;;;;0.80;0.50;;;19.80;54.10;22.00;93762.00;;;;10482325;28;45074;-67
2022/08/04 15:04:26;;;;;;;0.90;0.50;;;19.80;54.00;22.00;93765.00;;;;10469645;28;45298;-67
2022/08/04 15:09:46;;;;;;;0.40;0.40;;;19.90;54.00;22.00;93771.00;;;;10469894;28;45199;-67
2022/08/04 15:15:08;;;;;;;1.05;0.65;;;19.90;54.00;22.00;93771.00;;;;10468752;28;45138;-67
2022/08/04 15:20:31;;;;;;;0.50;0.50;;;19.90;54.10;22.00;93750.00;;;;10469459;28;45267;-67
2022/08/04 15:25:56;;;;;;;1.83;0.43;;;19.90;54.10;22.00;93754.00;;;;10469031;28;45294;-67
2022/08/04 15:31:18;;;;;;;1.63;0.52;;;19.90;53.90;22.00;93743.00;;;;10469493;28;45343;-67
2022/08/04 15:36:52;;;;;;;2.25;0.63;;;19.90;53.70;22.00;93752.00;;;;10467121;28;45266;-67
2022/08/04 15:42:18;;;;;;;1.98;0.60;;;19.90;53.70;22.00;93750.00;;;;10476755;28;45290;-67
2022/08/04 15:47:40;;;;;;;2.05;0.70;;;19.90;53.70;22.00;93739.00;;;;10475097;28;45274;-67
2022/08/04 15:53:05;;;;;;;2.33;0.80;;;19.90;53.50;22.00;93729.00;;;;10476202;28;45236;-67
2022/08/04 15:58:25;;;;;;;2.30;0.52;;;19.90;53.50;22.00;93726.00;;;;10475266;28;45211;-67
2022/08/04 16:03:48;;;;;;;1.65;0.70;;;19.90;53.40;22.00;93714.00;;;;10479424;28;45188;-67
2022/08/04 16:09:26;;;;;;;1.50;0.77;;;19.90;53.50;22.00;93714.00;;;;10474607;28;45202;-66
2022/08/04 16:14:47;;;;;;;1.08;0.60;;;19.90;53.60;22.00;93721.00;;;;10475350;28;45203;-67
2022/08/04 16:20:13;;;;;;;1.08;0.60;;;19.90;53.70;22.10;93717.00;;;;10475480;28;44612;-67
2022/08/04 16:25:47;;;;;;;0.68;0.45;;;19.90;53.80;22.10;93727.00;;;;10474173;28;45240;-67
2022/08/04 16:31:09;;;;;;;1.02;0.50;;;19.90;53.90;22.10;93722.00;;;;10475759;28;45181;-67
2022/08/04 16:36:58;;;;;;;1.40;0.60;;;19.90;54.00;22.10;93720.00;;;;10472053;28;45174;-67
2022/08/04 16:42:33;;;;;;;0.73;0.45;;;19.90;54.00;22.10;93714.00;;;;10473706;28;45200;-67
2022/08/04 16:48:07;;;;;;;0.50;0.50;;;19.90;54.20;22.10;93721.00;;;;10473573;28;45228;-67
2022/08/04 16:53:33;;;;;;;2.10;0.52;;;19.90;54.20;22.10;93721.00;;;;10473419;28;45437;-67
2022/08/04 16:58:56;;;;;;;0.57;0.40;;;19.90;54.30;22.10;93712.00;;;;10481034;28;45351;-67
2022/08/04 17:04:17;;;;;;;0.80;0.40;;;19.90;54.40;22.10;93704.00;;;;10473031;28;45167;-67
2022/08/04 17:09:49;;;;;;;1.13;0.50;;;19.90;54.50;22.10;93718.00;;;;10473491;28;45173;-67
2022/08/04 17:15:21;;;;;;;0.55;0.50;;;19.90;54.50;22.10;93699.00;;;;10472773;28;45264;-67
2022/08/04 17:20:43;;;;;;;1.38;0.60;;;19.90;54.50;22.10;93695.00;;;;10472436;28;45203;-67
2022/08/04 17:26:10;;;;;;;1.05;0.52;;;19.90;54.60;22.10;93712.00;;;;10472217;28;45205;-67
2022/08/04 17:31:36;;;;;;;0.45;0.40;;;19.90;54.60;22.10;93710.00;;;;10472627;28;45134;-67
2022/08/04 17:37:02;;;;;;;0.90;0.50;;;19.90;54.70;22.10;93707.00;;;;10471057;28;45152;-67
2022/08/04 17:42:29;;;;;;;0.40;0.40;;;19.90;54.70;22.10;93690.00;;;;10471979;28;45236;-67
2022/08/04 17:47:52;;;;;;;0.65;0.45;;;19.90;54.70;22.10;93693.00;;;;10471116;28;45254;-67
2022/08/04 17:53:12;;;;;;;0.52;0.50;;;20.00;54.80;22.10;93717.00;;;;10471343;28;45250;-67
2022/08/04 17:58:33;;;;;;;0.55;0.35;;;19.90;54.70;22.10;93694.00;;;;10468017;28;45279;-67
2022/08/04 18:03:58;;;;;;;0.63;0.45;;;19.90;54.80;22.10;93713.00;;;;10479439;28;45206;-67
2022/08/04 18:09:24;;;;;;;0.80;0.60;;;19.90;54.80;22.10;93704.00;;;;10469194;28;45188;-67
2022/08/04 18:14:47;;;;;;;0.70;0.50;;;20.00;55.00;22.10;93714.00;;;;10470494;28;45214;-67
2022/08/04 18:20:13;;;;;;;0.40;0.40;;;19.90;54.90;22.10;93706.00;;;;10470705;28;45331;-67
2022/08/04 18:25:33;;;;;;;0.63;0.50;;;20.00;55.00;22.10;93724.00;;;;10470050;28;45211;-67
2022/08/04 18:30:53;;;;;;;0.45;0.45;;;20.00;55.00;22.10;93721.00;;;;10470917;28;45192;-67
2022/08/04 18:36:15;;;;;;;0.40;0.40;;;19.90;55.00;22.10;93722.00;;;;10468911;28;45590;-67
2022/08/04 18:41:36;;;;;;;0.60;0.50;;;20.00;55.00;22.10;93719.00;;;;10470734;28;45352;-67
2022/08/04 18:46:57;;;;;;;0.50;0.40;;;20.00;55.00;22.10;93713.00;;;;10471567;28;45224;-67
2022/08/04 18:52:19;;;;;;;0.93;0.47;;;19.90;54.90;22.10;93719.00;;;;10469851;28;45124;-67
2022/08/04 18:57:40;;;;;;;0.50;0.50;;;20.00;54.90;22.10;93718.00;;;;10468673;28;45114;-67
2022/08/04 19:03:00;;;;;;;0.70;0.50;;;19.90;54.50;22.10;93724.00;;;;10487990;28;45271;-67
2022/08/04 19:08:22;;;;;;;0.63;0.45;;;20.00;54.10;22.10;93725.00;;;;10469437;28;45182;-67
2022/08/04 19:13:42;;;;;;;0.77;0.70;;;20.00;53.90;22.20;93740.00;;;;10476032;28;45435;-67
2022/08/04 19:19:06;;;;;;;0.45;0.40;;;20.00;53.80;22.20;93740.00;;;;10462950;28;45280;-66
2022/08/04 19:24:28;;;;;;;1.90;0.70;;;20.00;53.60;22.20;93748.00;;;;10476145;28;45164;-66
2022/08/04 19:29:48;;;;;;;1.17;0.70;;;20.00;52.20;22.30;93749.00;;;;10476270;28;45284;-66
2022/08/04 19:35:09;;;;;;;3.53;0.77;;;20.10;51.60;22.30;93755.00;;;;10475454;28;45287;-67
2022/08/04 19:40:31;;;;;;;1.50;0.90;;;20.10;49.60;22.30;93740.00;;;;10478460;28;45263;-67
2022/08/04 19:45:51;;;;;;;1.45;0.98;;;20.10;48.60;22.30;93759.00;;;;10474421;28;45232;-67
2022/08/04 19:51:12;;;;;;;1.83;0.80;;;20.10;48.40;22.30;93753.00;;;;10475895;28;45259;-67
2022/08/04 19:56:34;;;;;;;0.90;0.80;;;20.10;48.60;22.30;93765.00;;;;10474329;28;45307;-67
2022/08/04 20:01:55;;;;;;;1.00;0.75;;;20.20;48.30;22.30;93773.00;;;;10480479;28;45179;-67
2022/08/04 20:07:15;;;;;;;1.38;0.90;;;20.10;47.40;22.30;93774.00;;;;10481301;28;45129;-67
2022/08/04 20:12:38;;;;;;;1.25;0.82;;;20.20;48.50;22.30;93773.00;;;;10470596;28;45159;-67
2022/08/04 20:17:59;;;;;;;1.45;0.77;;;20.10;49.20;22.20;93777.00;;;;10470236;28;45251;-67
2022/08/04 20:23:19;;;;;;;0.93;0.80;;;20.10;49.10;22.20;93778.00;;;;10474262;28;45376;-67
2022/08/04 20:28:41;;;;;;;1.58;0.90;;;20.00;49.10;22.20;93785.00;;;;10473966;28;45433;-67
2022/08/04 20:34:02;;;;;;;0.73;0.73;;;20.00;49.30;22.20;93776.00;;;;10473567;28;45272;-67
2022/08/04 20:39:22;;;;;;;0.90;0.70;;;20.00;49.80;22.20;93788.00;;;;10474108;28;45317;-67
2022/08/04 20:44:44;;;;;;;0.77;0.70;;;20.00;49.70;22.20;93789.00;;;;10473593;28;45269;-67
2022/08/04 20:50:07;;;;;;;0.98;0.80;;;20.00;50.00;22.20;93791.00;;;;10462588;28;45224;-67
2022/08/04 20:55:28;;;;;;;1.25;0.88;;;20.00;49.90;22.20;93785.00;;;;10473139;28;45250;-67
2022/08/04 21:00:50;;;;;;;1.00;0.80;;;20.00;50.50;22.20;93790.00;;;;10477241;28;45232;-67
2022/08/04 21:06:11;;;;;;;0.70;0.70;;;20.00;50.00;22.10;93780.00;;;;10480335;28;45450;-67
2022/08/04 21:11:31;;;;;;;0.80;0.70;;;20.00;49.90;22.10;93771.00;;;;10472674;28;45272;-67
2022/08/04 21:16:53;;;;;;;1.05;0.82;;;20.00;49.80;22.10;93788.00;;;;10471259;28;45212;-67
2022/08/04 21:22:15;;;;;;;0.80;0.80;;;20.00;49.80;22.10;93780.00;;;;10473296;28;45165;-67
2022/08/04 21:27:36;;;;;;;0.95;0.73;;;20.00;50.10;22.10;93777.00;;;;10478670;28;45246;-66
2022/08/04 21:32:57;;;;;;;1.13;0.70;;;20.00;50.10;22.10;93784.00;;;;10479645;28;45203;-67
2022/08/04 21:38:18;;;;;;;0.88;0.80;;;20.00;50.40;22.10;93773.00;;;;10478462;28;45222;-68
2022/08/04 21:43:39;;;;;;;0.82;0.80;;;20.00;50.40;22.10;93778.00;;;;10467379;28;45234;-67
2022/08/04 21:49:01;;;;;;;0.88;0.70;;;20.00;50.20;22.10;93792.00;;;;10478125;28;45228;-67
2022/08/04 21:54:22;;;;;;;0.90;0.70;;;19.90;50.30;22.10;93789.00;;;;10478838;28;45476;-67
2022/08/04 21:59:42;;;;;;;0.82;0.70;;;20.00;50.30;22.10;93790.00;;;;10465888;28;45398;-67
2022/08/04 22:05:05;;;;;;;1.23;0.98;;;20.00;50.50;22.10;93784.00;;;;10492307;28;45182;-67
2022/08/04 22:10:26;;;;;;;0.98;0.88;;;20.00;50.70;22.10;93783.00;;;;10477835;28;45313;-67
2022/08/04 22:15:46;;;;;;;0.98;0.82;;;20.00;50.30;22.10;93786.00;;;;10476390;28;45189;-67
2022/08/04 22:21:08;;;;;;;0.93;0.80;;;20.00;50.50;22.10;93795.00;;;;10477924;28;45503;-67
2022/08/04 22:26:30;;;;;;;1.00;0.90;;;20.00;51.30;22.10;93788.00;;;;10477048;28;45196;-67
2022/08/04 22:31:51;;;;;;;1.65;0.75;;;19.90;50.80;22.10;93779.00;;;;10477252;28;45295;-67
2022/08/04 22:37:12;;;;;;;0.90;0.77;;;20.00;51.00;22.10;93793.00;;;;10470625;28;45221;-67
2022/08/04 22:42:33;;;;;;;0.75;0.60;;;20.00;50.90;22.10;93789.00;;;;10470059;28;45264;-66
2022/08/04 22:47:54;;;;;;;0.95;0.82;;;20.00;51.10;22.10;93775.00;;;;10469646;28;45265;-66
2022/08/04 22:53:16;;;;;;;1.13;0.85;;;20.00;51.00;22.10;93772.00;;;;10469334;28;45796;-66
2022/08/04 22:58:39;;;;;;;1.45;1.00;;;20.00;50.90;22.10;93778.00;;;;10468812;28;45205;-67
2022/08/04 23:03:59;;;;;;;0.88;0.80;;;19.90;50.40;22.10;93784.00;;;;10477508;28;45275;-66
2022/08/04 23:09:21;;;;;;;1.20;0.80;;;19.90;50.30;22.10;93780.00;;;;10468842;28;45187;-67
2022/08/04 23:14:44;;;;;;;2.15;1.08;;;19.90;50.40;22.10;93786.00;;;;10468031;28;45214;-66
2022/08/04 23:20:06;;;;;;;0.98;0.80;;;19.90;50.40;22.10;93775.00;;;;10469000;28;45241;-67
2022/08/04 23:25:28;;;;;;;1.17;0.70;;;19.90;50.40;22.10;93781.00;;;;10469628;28;45344;-67
2022/08/04 23:30:48;;;;;;;1.52;0.93;;;19.90;50.50;22.10;93783.00;;;;10470661;28;45220;-66
2022/08/04 23:36:09;;;;;;;0.88;0.82;;;19.90;50.60;22.10;93782.00;;;;10467969;28;45318;-66
2022/08/04 23:41:31;;;;;;;1.08;0.65;;;20.00;50.80;22.10;93793.00;;;;10466837;28;45254;-67
2022/08/04 23:47:00;;;;;;;0.70;0.70;;;19.90;50.90;22.10;93780.00;;;;10467663;28;45220;-67
2022/08/04 23:52:21;;;;;;;0.98;0.85;;;20.00;51.00;22.10;93783.00;;;;10467981;28;45227;-67
2022/08/04 23:57:42;;;;;;;1.98;0.85;;;19.90;50.90;22.10;93769.00;;;;10467854;28;45243;-66
